createdAt,value
2022-08-03T00:05:40.959Z,1016.82
2022-08-03T00:10:33.805Z,1016.78
2022-08-03T00:15:26.528Z,1016.79
2022-08-03T00:20:19.071Z,1016.81
2022-08-03T00:25:11.717Z,1016.82
2022-08-03T00:30:04.319Z,1016.83
2022-08-03T00:34:58.034Z,1016.84
2022-08-03T00:39:49.583Z,1016.84
2022-08-03T00:44:42.184Z,1016.88
2022-08-03T00:49:34.716Z,1016.85
2022-08-03T00:54:27.271Z,1016.91
2022-08-03T00:59:19.987Z,1016.9
2022-08-03T01:07:28.976Z,1016.92
2022-08-03T01:12:42.935Z,1016.95
2022-08-03T01:22:23.475Z,1016.93
2022-08-03T01:27:16.248Z,1016.94
2022-08-03T01:32:51.881Z,1016.93
2022-08-03T01:41:54.058Z,1016.88
2022-08-03T01:46:47.513Z,1016.84
2022-08-03T01:51:56.203Z,1016.85
2022-08-03T01:56:31.615Z,1016.78
2022-08-03T02:01:24.208Z,1016.77
2022-08-03T02:06:59.023Z,1016.8
2022-08-03T02:11:09.726Z,1016.8
2022-08-03T02:16:02.534Z,1016.8
2022-08-03T02:20:55.246Z,1016.76
2022-08-03T02:25:47.953Z,1016.77
2022-08-03T02:30:40.282Z,1016.78
2022-08-03T02:35:33.137Z,1016.71
2022-08-03T02:40:28.963Z,1016.76
2022-08-03T02:45:21.039Z,1016.76
2022-08-03T02:50:21.761Z,1016.76
2022-08-03T02:55:12.468Z,1016.74
2022-08-03T03:00:04.950Z,1016.69
2022-08-03T03:05:54.034Z,1016.66
2022-08-03T03:09:50.036Z,1016.67
2022-08-03T03:14:42.777Z,1016.6
2022-08-03T03:19:35.419Z,1016.59
2022-08-03T03:24:28.192Z,1016.64
2022-08-03T03:33:14.676Z,1016.6
2022-08-03T03:37:54.792Z,1016.64
2022-08-03T03:42:47.403Z,1016.65
2022-08-03T03:47:40.100Z,1016.64
2022-08-03T03:57:20.460Z,1016.67
2022-08-03T04:02:14.460Z,1016.68
2022-08-03T04:07:06.853Z,1016.72
2022-08-03T04:11:59.279Z,1016.72
2022-08-03T04:17:00.622Z,1016.79
2022-08-03T04:21:50.721Z,1016.83
2022-08-03T04:26:43.189Z,1016.95
2022-08-03T04:31:35.577Z,1017
2022-08-03T04:36:27.829Z,1016.99
2022-08-03T04:41:20.542Z,1017
2022-08-03T04:46:12.709Z,1017.11
2022-08-03T04:51:05.400Z,1017.17
2022-08-03T04:55:58.056Z,1017.12
2022-08-03T05:00:50.545Z,1017.15
2022-08-03T05:05:50.449Z,1017.11
2022-08-03T05:10:35.122Z,1017.16
2022-08-03T05:15:27.690Z,1017.23
2022-08-03T05:20:19.935Z,1017.19
2022-08-03T05:25:17.436Z,1017.19
2022-08-03T05:30:26.578Z,1017.19
2022-08-03T05:34:57.629Z,1017.19
2022-08-03T05:39:50.270Z,1017.23
2022-08-03T05:44:41.745Z,1017.29
2022-08-03T05:49:34.843Z,1017.23
2022-08-03T05:54:57.076Z,1017.19
2022-08-03T05:59:37.467Z,1017.24
2022-08-03T06:04:13.130Z,1017.31
2022-08-03T06:09:05.779Z,1017.3
2022-08-03T06:13:58.877Z,1017.21
2022-08-03T06:18:50.926Z,1017.16
2022-08-03T06:23:53.638Z,1017.19
2022-08-03T06:28:52.061Z,1017.23
2022-08-03T06:33:48.752Z,1017.21
2022-08-03T06:38:20.561Z,1017.2
2022-08-03T06:43:13.120Z,1017.17
2022-08-03T06:48:06.089Z,1017.2
2022-08-03T06:52:58.473Z,1017.2
2022-08-03T06:57:51.030Z,1017.2
2022-08-03T07:02:44.223Z,1017.24
2022-08-03T07:07:36.252Z,1017.09
2022-08-03T07:12:28.734Z,1017.12
2022-08-03T07:17:21.532Z,1017.13
2022-08-03T07:22:13.905Z,1017.13
2022-08-03T07:27:06.448Z,1017.09
2022-08-03T07:31:59.257Z,1017.1
2022-08-03T07:36:52.057Z,1017.09
2022-08-03T07:41:44.714Z,1016.99
2022-08-03T07:46:37.759Z,1017.03
2022-08-03T07:51:30.517Z,1016.95
2022-08-03T07:56:22.760Z,1016.94
2022-08-03T08:01:15.660Z,1016.8
2022-08-03T08:06:08.445Z,1016.75
2022-08-03T08:11:01.170Z,1016.71
2022-08-03T08:15:53.730Z,1016.67
2022-08-03T08:20:49.527Z,1016.68
2022-08-03T08:25:41.267Z,1016.67
2022-08-03T08:30:33.738Z,1016.6
2022-08-03T08:35:26.361Z,1016.58
2022-08-03T08:40:18.803Z,1016.59
2022-08-03T08:45:11.373Z,1016.57
2022-08-03T08:50:09.590Z,1016.56
2022-08-03T08:54:56.468Z,1016.52
2022-08-03T09:04:41.636Z,1016.5
2022-08-03T09:14:33.702Z,1016.39
2022-08-03T09:24:20.840Z,1016.42
2022-08-03T09:29:09.504Z,1016.26
2022-08-03T09:33:57.858Z,1016.25
2022-08-03T09:38:50.358Z,1016.2
2022-08-03T09:43:42.611Z,1016.23
2022-08-03T09:48:35.254Z,1016.22
2022-08-03T09:53:27.642Z,1016.13
2022-08-03T10:03:12.609Z,1015.99
2022-08-03T10:12:57.758Z,1015.88
2022-08-03T10:22:42.564Z,1015.71
2022-08-03T10:27:35.195Z,1015.72
2022-08-03T10:32:27.943Z,1015.69
2022-08-03T10:37:20.533Z,1015.54
2022-08-03T10:42:13.526Z,1015.54
2022-08-03T10:47:05.652Z,1015.47
2022-08-03T10:51:58.308Z,1015.36
2022-08-03T10:56:50.750Z,1015.35
2022-08-03T11:01:55.052Z,1015.36
2022-08-03T11:06:37.317Z,1015.32
2022-08-03T11:11:28.689Z,1015.29
2022-08-03T11:16:22.503Z,1015.21
2022-08-03T11:21:13.916Z,1015.19
2022-08-03T11:26:06.282Z,1015.17
2022-08-03T11:30:58.955Z,1015.09
2022-08-03T11:35:51.480Z,1015.04
2022-08-03T11:40:44.128Z,1015.01
2022-08-03T11:45:36.874Z,1015.01
2022-08-03T11:50:29.367Z,1015.06
2022-08-03T11:55:22.398Z,1014.93
2022-08-03T12:00:14.835Z,1014.91
2022-08-03T12:05:07.537Z,1014.88
2022-08-03T12:09:59.847Z,1014.86
2022-08-03T12:14:52.677Z,1014.74
2022-08-03T12:19:44.984Z,1014.72
2022-08-03T12:24:37.820Z,1014.65
2022-08-03T12:29:30.160Z,1014.61
2022-08-03T12:34:22.650Z,1014.66
2022-08-03T12:39:15.360Z,1014.53
2022-08-03T12:44:08.285Z,1014.46
2022-08-03T12:49:00.703Z,1014.43
2022-08-03T12:53:53.339Z,1014.4
2022-08-03T12:58:46.122Z,1014.43
2022-08-03T13:03:42.023Z,1014.29
2022-08-03T13:08:31.451Z,1014.27
2022-08-03T13:13:24.098Z,1014.24
2022-08-03T13:18:17.399Z,1014.16
2022-08-03T13:23:10.758Z,1014.15
2022-08-03T13:28:05.854Z,1014.14
2022-08-03T13:32:54.903Z,1014.13
2022-08-03T13:37:47.407Z,1014.05
2022-08-03T13:42:40.003Z,1013.99
2022-08-03T13:47:32.678Z,1013.92
2022-08-03T13:52:25.269Z,1013.9
2022-08-03T14:02:05.678Z,1013.81
2022-08-03T14:06:59.494Z,1013.72
2022-08-03T14:12:04.253Z,1013.65
2022-08-03T14:16:44.952Z,1013.71
2022-08-03T14:21:37.543Z,1013.73
2022-08-03T14:26:30.062Z,1013.69
2022-08-03T14:32:09.404Z,1013.73
2022-08-03T14:36:15.292Z,1013.73
2022-08-03T14:41:11.976Z,1013.68
2022-08-03T14:46:00.384Z,1013.7
2022-08-03T14:50:53.239Z,1013.73
2022-08-03T14:55:50.188Z,1013.71
2022-08-03T15:00:37.975Z,1013.65
2022-08-03T15:05:30.519Z,1013.61
2022-08-03T15:10:27.147Z,1013.5
2022-08-03T15:15:15.560Z,1013.46
2022-08-03T15:20:17.181Z,1013.44
2022-08-03T15:25:00.705Z,1013.44
2022-08-03T15:30:06.275Z,1013.47
2022-08-03T15:34:50.528Z,1013.47
2022-08-03T15:39:58.693Z,1013.43
2022-08-03T15:44:31.108Z,1013.44
2022-08-03T15:49:23.640Z,1013.37
2022-08-03T15:54:16.593Z,1013.37
2022-08-03T15:59:12.985Z,1013.36
2022-08-03T16:04:01.950Z,1013.39
2022-08-03T16:08:54.626Z,1013.32
2022-08-03T16:14:05.142Z,1013.3
2022-08-03T16:18:39.735Z,1013.27
2022-08-03T16:23:33.889Z,1013.27
2022-08-03T16:28:25.223Z,1013.27
2022-08-03T16:38:12.308Z,1013.28
2022-08-03T16:48:01.877Z,1013.33
2022-08-03T16:57:56.173Z,1013.24
2022-08-03T17:02:32.974Z,1013.28
2022-08-03T17:07:25.574Z,1013.3
2022-08-03T17:12:18.541Z,1013.33
2022-08-03T17:17:16.281Z,1013.35
2022-08-03T17:22:04.088Z,1013.41
2022-08-03T17:26:56.513Z,1013.46
2022-08-03T17:31:49.834Z,1013.46
2022-08-03T17:37:03.013Z,1013.46
2022-08-03T17:41:34.689Z,1013.43
2022-08-03T17:46:27.693Z,1013.46
2022-08-03T17:51:20.335Z,1013.54
2022-08-03T17:56:40.593Z,1013.52
2022-08-03T18:01:58.397Z,1013.55
2022-08-03T18:06:08.844Z,1013.62
2022-08-03T18:10:51.075Z,1013.68
2022-08-03T18:15:43.721Z,1013.73
2022-08-03T18:20:41.421Z,1013.75
2022-08-03T18:25:37.916Z,1013.74
2022-08-03T18:30:21.788Z,1013.75
2022-08-03T18:35:14.789Z,1013.74
2022-08-03T18:40:07.594Z,1013.74
2022-08-03T18:45:14.885Z,1013.8
2022-08-03T18:49:52.896Z,1013.78
2022-08-03T18:54:59.286Z,1013.78
2022-08-03T18:59:38.140Z,1013.84
2022-08-03T19:04:31.077Z,1013.88
2022-08-03T19:09:24.102Z,1013.94
2022-08-03T19:14:16.411Z,1013.98
2022-08-03T19:19:08.896Z,1014.05
2022-08-03T19:24:03.735Z,1014.08
2022-08-03T19:28:54.571Z,1014.07
2022-08-03T19:33:56.253Z,1014.14
2022-08-03T19:38:39.504Z,1014.19
2022-08-03T19:43:32.862Z,1014.16
2022-08-03T19:48:24.919Z,1014.12
2022-08-03T19:53:17.693Z,1014.18
2022-08-03T19:58:17.480Z,1014.21
2022-08-03T20:03:02.856Z,1014.2
2022-08-03T20:07:55.719Z,1014.25
2022-08-03T20:12:48.140Z,1014.26
2022-08-03T20:17:54.179Z,1014.25
2022-08-03T20:22:33.408Z,1014.27
2022-08-03T20:27:30.129Z,1014.21
2022-08-03T20:32:19.175Z,1014.19
2022-08-03T20:37:12.010Z,1014.21
2022-08-03T20:42:04.015Z,1014.22
2022-08-03T20:47:00.409Z,1014.25
2022-08-03T20:51:49.385Z,1014.29
2022-08-03T20:56:41.492Z,1014.27
2022-08-03T21:01:36.047Z,1014.23
2022-08-03T21:06:27.595Z,1014.25
2022-08-03T21:11:19.276Z,1014.22
2022-08-03T21:16:14.869Z,1014.28
2022-08-03T21:21:04.989Z,1014.32
2022-08-03T21:25:57.456Z,1014.28
2022-08-03T21:30:50.201Z,1014.29
2022-08-03T21:35:42.865Z,1014.28
2022-08-03T21:40:35.236Z,1014.25
2022-08-03T21:45:27.668Z,1014.23
2022-08-03T21:50:20.634Z,1014.23
2022-08-03T21:55:18.705Z,1014.24
2022-08-03T22:04:58.459Z,1014.25
2022-08-03T22:14:44.840Z,1014.21
2022-08-03T22:19:37.504Z,1014.18
2022-08-03T22:24:30.039Z,1014.18
2022-08-03T22:29:22.809Z,1014.24
2022-08-03T22:34:14.899Z,1014.28
2022-08-03T22:39:07.793Z,1014.29
2022-08-03T22:44:00.421Z,1014.3
2022-08-03T22:48:52.864Z,1014.28
2022-08-03T22:53:45.440Z,1014.27
2022-08-03T22:58:38.236Z,1014.27
2022-08-03T23:03:59.426Z,1014.32
